ITY31C LPFR-LIML
Flight info
| Callsign | ITY31C |
|---|---|
| Flight time | 2h 26m |
| Altitude | 19000 |
| Route | TUPIX Y135 NAPES/N0448F340 N747 PIMUR/N0444F380 N747 KUKAL T245 BUDIT M445 LASPO M871 PTC DCT MHN DCT ISTER DCT NIVDA DCT OMEDA DCT RAPUR DCT TORTU DCT ERTEV DCT OLETI DCT OTMUV DCT GEN |
| Aircraft | A20N/M-SDE2E3FGHIRWXY/LB1 |
Departure
| Time | 2026-05-05 19:38 |
|---|---|
| Airport | Faro - Gago Coutinho International Airport (LPFR) |
Arrival
| Time | 2026-05-05 22:05 |
|---|---|
| Airport | Milano Linate Airport (LIML) |
| Time | Latitude | Longitude | Altitude | Speed | Heading |
|---|---|---|---|---|---|
| 2026-05-05 19:14 | 37.01940 | -7.96983 | 25 ft | 0 kts | 10° |
| 2026-05-05 19:29 | 37.01929 | -7.96985 | 25 ft | 2 kts | 10° |
| 2026-05-05 19:29 | 37.01913 | -7.96989 | 25 ft | 2 kts | 10° |
| 2026-05-05 19:29 | 37.01897 | -7.96992 | 25 ft | 2 kts | 10° |
| 2026-05-05 19:30 | 37.01881 | -7.96996 | 25 ft | 2 kts | 10° |
| 2026-05-05 19:30 | 37.01865 | -7.97003 | 25 ft | 2 kts | 50° |
| 2026-05-05 19:30 | 37.01859 | -7.97023 | 26 ft | 0 kts | 94° |
| 2026-05-05 19:30 | 37.01860 | -7.97032 | 26 ft | 1 kts | 100° |
| 2026-05-05 19:31 | 37.01860 | -7.97034 | 26 ft | 0 kts | 100° |
| 2026-05-05 19:34 | 37.01857 | -7.97018 | 26 ft | 5 kts | 102° |
| 2026-05-05 19:34 | 37.01842 | -7.96935 | 25 ft | 9 kts | 103° |
| 2026-05-05 19:35 | 37.01680 | -7.96894 | 22 ft | 14 kts | 143° |
| 2026-05-05 19:35 | 37.01650 | -7.96762 | 22 ft | 15 kts | 100° |
| 2026-05-05 19:35 | 37.01629 | -7.96619 | 22 ft | 16 kts | 101° |
| 2026-05-05 19:35 | 37.01608 | -7.96472 | 22 ft | 16 kts | 96° |
| 2026-05-05 19:36 | 37.01587 | -7.96318 | 22 ft | 17 kts | 100° |
| 2026-05-05 19:36 | 37.01562 | -7.96141 | 19 ft | 19 kts | 99° |
| 2026-05-05 19:36 | 37.01535 | -7.95953 | 18 ft | 20 kts | 100° |
| 2026-05-05 19:36 | 37.01450 | -7.95843 | 16 ft | 12 kts | 191° |
| 2026-05-05 19:37 | 37.01444 | -7.95845 | 16 ft | 0 kts | 192° |
| 2026-05-05 19:37 | 37.01427 | -7.95849 | 16 ft | 11 kts | 191° |
| 2026-05-05 19:37 | 37.01349 | -7.95869 | 16 ft | 8 kts | 238° |
| 2026-05-05 19:38 | 37.01350 | -7.95941 | 18 ft | 8 kts | 282° |
| 2026-05-05 19:38 | 37.01394 | -7.96238 | 21 ft | 75 kts | 280° |
| 2026-05-05 19:38 | 37.01530 | -7.97214 | 23 ft | 147 kts | 277° |
| 2026-05-05 19:38 | 37.01653 | -7.98553 | 707 ft | 156 kts | 279° |
| 2026-05-05 19:39 | 37.01704 | -7.99946 | 1554 ft | 158 kts | 282° |
| 2026-05-05 19:39 | 37.01884 | -8.01338 | 2255 ft | 172 kts | 288° |
| 2026-05-05 19:39 | 37.02184 | -8.02827 | 2934 ft | 187 kts | 287° |
| 2026-05-05 19:39 | 37.02481 | -8.04494 | 3559 ft | 204 kts | 285° |
| 2026-05-05 19:40 | 37.02806 | -8.06274 | 4171 ft | 221 kts | 286° |
| 2026-05-05 19:40 | 37.03064 | -8.08255 | 4823 ft | 241 kts | 270° |
| 2026-05-05 19:40 | 37.02681 | -8.10352 | 5605 ft | 254 kts | 243° |
| 2026-05-05 19:40 | 37.01428 | -8.11898 | 6466 ft | 260 kts | 203° |
| 2026-05-05 19:41 | 36.99689 | -8.12152 | 7379 ft | 260 kts | 165° |
| 2026-05-05 19:41 | 36.98029 | -8.11200 | 7995 ft | 273 kts | 142° |
| 2026-05-05 19:41 | 36.96757 | -8.09355 | 8586 ft | 287 kts | 117° |
| 2026-05-05 19:41 | 36.95941 | -8.07093 | 9374 ft | 294 kts | 111° |
| 2026-05-05 19:42 | 36.95165 | -8.04684 | 10206 ft | 299 kts | 111° |
| 2026-05-05 19:42 | 36.94382 | -8.02270 | 10957 ft | 306 kts | 112° |
| 2026-05-05 19:42 | 36.93507 | -7.99803 | 11445 ft | 323 kts | 114° |
| 2026-05-05 19:42 | 36.92530 | -7.97171 | 11865 ft | 342 kts | 115° |
| 2026-05-05 19:43 | 36.91503 | -7.94438 | 12246 ft | 360 kts | 115° |
| 2026-05-05 19:43 | 36.90413 | -7.91545 | 12599 ft | 378 kts | 115° |
| 2026-05-05 19:43 | 36.89272 | -7.88513 | 12906 ft | 396 kts | 115° |
| 2026-05-05 19:43 | 36.88071 | -7.85321 | 13268 ft | 411 kts | 115° |
| 2026-05-05 19:44 | 36.86862 | -7.82111 | 13889 ft | 417 kts | 115° |
| 2026-05-05 19:44 | 36.85630 | -7.78839 | 14606 ft | 419 kts | 115° |
| 2026-05-05 19:44 | 36.84397 | -7.75530 | 15285 ft | 423 kts | 113° |
| 2026-05-05 19:44 | 36.83658 | -7.71962 | 15841 ft | 428 kts | 94° |
| 2026-05-05 19:45 | 36.83923 | -7.68309 | 16452 ft | 430 kts | 74° |
| 2026-05-05 19:45 | 36.85155 | -7.64901 | 17045 ft | 431 kts | 54° |
| 2026-05-05 19:45 | 36.87159 | -7.62144 | 17609 ft | 432 kts | 40° |
| 2026-05-05 19:45 | 36.89387 | -7.59622 | 18158 ft | 436 kts | 40° |
| 2026-05-05 19:46 | 36.91623 | -7.57099 | 18664 ft | 441 kts | 40° |
| 2026-05-05 19:46 | 36.93899 | -7.54493 | 18969 ft | 443 kts | 40° |
| 2026-05-05 19:46 | 36.96158 | -7.51869 | 18998 ft | 443 kts | 41° |
| 2026-05-05 19:46 | 36.98396 | -7.49244 | 18997 ft | 443 kts | 41° |
| 2026-05-05 19:47 | 37.00645 | -7.46592 | 18998 ft | 443 kts | 41° |
| 2026-05-05 19:47 | 37.02885 | -7.43949 | 18996 ft | 443 kts | 41° |
| 2026-05-05 19:47 | 37.05092 | -7.41308 | 18991 ft | 444 kts | 43° |
| 2026-05-05 19:47 | 37.07079 | -7.38375 | 18994 ft | 446 kts | 52° |
| 2026-05-05 19:48 | 37.08727 | -7.35086 | 18992 ft | 448 kts | 60° |
| 2026-05-05 19:48 | 37.10045 | -7.31548 | 18996 ft | 447 kts | 65° |
| 2026-05-05 19:48 | 37.11248 | -7.27961 | 18998 ft | 448 kts | 66° |
| 2026-05-05 19:48 | 37.12441 | -7.24345 | 19005 ft | 449 kts | 66° |
| 2026-05-05 19:49 | 37.13641 | -7.20736 | 19359 ft | 455 kts | 66° |
| 2026-05-05 19:49 | 37.14461 | -7.18290 | 19799 ft | 455 kts | 66° |
| 2026-05-05 19:49 | 37.16105 | -7.13413 | 20552 ft | 458 kts | 66° |
| 2026-05-05 19:49 | 37.17345 | -7.09753 | 21040 ft | 462 kts | 66° |
| 2026-05-05 19:50 | 37.18565 | -7.06028 | 21525 ft | 466 kts | 68° |
| 2026-05-05 19:50 | 37.19630 | -7.02228 | 22003 ft | 470 kts | 71° |
| 2026-05-05 19:50 | 37.20540 | -6.98247 | 22499 ft | 473 kts | 75° |
| 2026-05-05 19:50 | 37.21309 | -6.94252 | 22975 ft | 476 kts | 76° |
| 2026-05-05 19:51 | 37.22046 | -6.90253 | 23786 ft | 471 kts | 76° |
| 2026-05-05 19:51 | 37.22769 | -6.86301 | 24737 ft | 463 kts | 76° |
| 2026-05-05 19:51 | 37.23493 | -6.82369 | 25372 ft | 462 kts | 76° |
| 2026-05-05 19:51 | 37.24214 | -6.78485 | 25853 ft | 465 kts | 76° |
| 2026-05-05 19:52 | 37.24955 | -6.74512 | 26361 ft | 467 kts | 76° |
| 2026-05-05 19:52 | 37.25692 | -6.70553 | 26923 ft | 467 kts | 76° |
| 2026-05-05 19:52 | 37.26422 | -6.66614 | 27483 ft | 467 kts | 76° |
| 2026-05-05 19:52 | 37.27160 | -6.62629 | 28008 ft | 468 kts | 76° |
| 2026-05-05 19:53 | 37.27882 | -6.58707 | 28506 ft | 468 kts | 76° |
| 2026-05-05 19:53 | 37.28619 | -6.54702 | 28999 ft | 468 kts | 76° |
| 2026-05-05 19:53 | 37.29343 | -6.50764 | 29478 ft | 469 kts | 76° |
| 2026-05-05 19:53 | 37.30076 | -6.46781 | 29934 ft | 469 kts | 76° |
| 2026-05-05 19:54 | 37.30807 | -6.42791 | 30379 ft | 470 kts | 76° |
| 2026-05-05 19:54 | 37.31541 | -6.38784 | 30849 ft | 470 kts | 76° |
| 2026-05-05 19:54 | 37.32258 | -6.34853 | 31308 ft | 469 kts | 77° |
| 2026-05-05 19:54 | 37.32980 | -6.30885 | 31765 ft | 468 kts | 77° |
| 2026-05-05 19:55 | 37.33709 | -6.26868 | 32215 ft | 467 kts | 77° |
| 2026-05-05 19:55 | 37.34421 | -6.22932 | 32631 ft | 467 kts | 77° |
| 2026-05-05 19:55 | 37.35141 | -6.18952 | 33045 ft | 466 kts | 77° |
| 2026-05-05 19:55 | 37.35851 | -6.15019 | 33446 ft | 466 kts | 77° |
| 2026-05-05 19:56 | 37.36568 | -6.11038 | 33853 ft | 465 kts | 77° |
| 2026-05-05 19:56 | 37.37270 | -6.07133 | 34228 ft | 465 kts | 77° |
| 2026-05-05 19:56 | 37.37978 | -6.03184 | 34579 ft | 464 kts | 78° |
| 2026-05-05 19:56 | 37.38681 | -5.99247 | 34894 ft | 463 kts | 77° |
| 2026-05-05 19:57 | 37.39389 | -5.95270 | 35195 ft | 463 kts | 77° |
| 2026-05-05 19:57 | 37.39853 | -5.92657 | 35389 ft | 462 kts | 77° |
| 2026-05-05 19:57 | 37.40785 | -5.87412 | 35765 ft | 462 kts | 77° |
| 2026-05-05 19:57 | 37.41478 | -5.83502 | 36036 ft | 462 kts | 77° |
| 2026-05-05 19:58 | 37.42207 | -5.79615 | 36295 ft | 461 kts | 75° |
| 2026-05-05 19:58 | 37.43125 | -5.75717 | 36592 ft | 461 kts | 70° |
| 2026-05-05 19:58 | 37.44234 | -5.71947 | 36915 ft | 460 kts | 66° |
| 2026-05-05 19:58 | 37.45484 | -5.68304 | 37252 ft | 459 kts | 64° |
| 2026-05-05 19:59 | 37.46779 | -5.64661 | 37560 ft | 459 kts | 64° |
| 2026-05-05 19:59 | 37.48085 | -5.60998 | 37838 ft | 459 kts | 64° |
| 2026-05-05 19:59 | 37.49390 | -5.57311 | 37979 ft | 460 kts | 64° |
| 2026-05-05 20:00 | 37.51952 | -5.50005 | 37982 ft | 461 kts | 64° |
| 2026-05-05 20:00 | 37.54528 | -5.42602 | 37984 ft | 461 kts | 64° |
| 2026-05-05 20:01 | 37.57082 | -5.35243 | 37986 ft | 460 kts | 64° |
| 2026-05-05 20:01 | 37.59681 | -5.27736 | 37987 ft | 461 kts | 65° |
| 2026-05-05 20:02 | 37.62245 | -5.20321 | 37986 ft | 461 kts | 65° |
| 2026-05-05 20:02 | 37.64789 | -5.12961 | 37986 ft | 461 kts | 65° |
| 2026-05-05 20:03 | 37.67351 | -5.05521 | 37982 ft | 462 kts | 65° |
| 2026-05-05 20:03 | 37.69891 | -4.98123 | 37980 ft | 461 kts | 65° |
| 2026-05-05 20:04 | 37.72439 | -4.90676 | 37972 ft | 462 kts | 65° |
| 2026-05-05 20:04 | 37.74976 | -4.83245 | 37972 ft | 462 kts | 65° |
| 2026-05-05 20:05 | 37.77505 | -4.75819 | 37971 ft | 462 kts | 65° |
| 2026-05-05 20:05 | 37.80025 | -4.68402 | 37971 ft | 463 kts | 65° |
| 2026-05-05 20:06 | 37.82550 | -4.60940 | 37971 ft | 463 kts | 65° |
| 2026-05-05 20:06 | 37.85066 | -4.53479 | 37970 ft | 463 kts | 65° |
| 2026-05-05 20:07 | 37.87025 | -4.45724 | 37964 ft | 464 kts | 81° |
| 2026-05-05 20:07 | 37.87594 | -4.37673 | 37969 ft | 464 kts | 86° |
| 2026-05-05 20:08 | 37.88010 | -4.29557 | 37967 ft | 464 kts | 87° |
| 2026-05-05 20:08 | 37.88459 | -4.21425 | 37968 ft | 465 kts | 87° |
| 2026-05-05 20:09 | 37.88926 | -4.13330 | 37978 ft | 464 kts | 86° |
| 2026-05-05 20:09 | 37.89395 | -4.05193 | 37986 ft | 465 kts | 86° |
| 2026-05-05 20:10 | 37.89861 | -3.97019 | 37981 ft | 465 kts | 86° |
| 2026-05-05 20:10 | 37.90321 | -3.88874 | 37978 ft | 465 kts | 86° |
| 2026-05-05 20:11 | 37.90773 | -3.80772 | 37968 ft | 465 kts | 86° |
| 2026-05-05 20:11 | 37.91223 | -3.72618 | 37971 ft | 465 kts | 87° |
| 2026-05-05 20:12 | 37.91666 | -3.64475 | 37983 ft | 465 kts | 87° |
| 2026-05-05 20:12 | 37.92100 | -3.56359 | 37989 ft | 464 kts | 87° |
| 2026-05-05 20:13 | 37.92527 | -3.48262 | 38002 ft | 465 kts | 86° |
| 2026-05-05 20:13 | 37.92952 | -3.40123 | 38002 ft | 465 kts | 86° |
| 2026-05-05 20:14 | 37.93378 | -3.31896 | 37999 ft | 465 kts | 87° |
| 2026-05-05 20:14 | 37.93790 | -3.23780 | 38001 ft | 465 kts | 87° |
| 2026-05-05 20:15 | 37.94201 | -3.15598 | 38004 ft | 465 kts | 87° |
| 2026-05-05 20:15 | 37.94604 | -3.07417 | 38005 ft | 465 kts | 88° |
| 2026-05-05 20:16 | 37.94991 | -2.99465 | 38007 ft | 465 kts | 88° |
| 2026-05-05 20:16 | 37.95374 | -2.91476 | 38006 ft | 463 kts | 88° |
| 2026-05-05 20:17 | 37.95760 | -2.83321 | 38014 ft | 463 kts | 88° |
| 2026-05-05 20:17 | 37.96137 | -2.75237 | 38014 ft | 464 kts | 88° |
| 2026-05-05 20:18 | 37.96508 | -2.67076 | 38013 ft | 463 kts | 88° |
| 2026-05-05 20:18 | 37.96938 | -2.58991 | 38014 ft | 465 kts | 82° |
| 2026-05-05 20:19 | 37.98611 | -2.51092 | 38013 ft | 464 kts | 65° |
| 2026-05-05 20:19 | 38.01884 | -2.44146 | 38013 ft | 460 kts | 47° |
| 2026-05-05 20:20 | 38.06196 | -2.38290 | 38004 ft | 457 kts | 41° |
| 2026-05-05 20:20 | 38.10645 | -2.32516 | 37999 ft | 458 kts | 43° |
| 2026-05-05 20:21 | 38.15034 | -2.26664 | 38006 ft | 459 kts | 43° |
| 2026-05-05 20:21 | 38.19429 | -2.20751 | 38004 ft | 460 kts | 44° |
| 2026-05-05 20:22 | 38.23564 | -2.14541 | 38005 ft | 462 kts | 49° |
| 2026-05-05 20:22 | 38.27518 | -2.08113 | 37995 ft | 462 kts | 49° |
| 2026-05-05 20:23 | 38.31466 | -2.01687 | 37998 ft | 463 kts | 49° |
| 2026-05-05 20:23 | 38.35415 | -1.95283 | 37985 ft | 464 kts | 49° |
| 2026-05-05 20:24 | 38.39491 | -1.88678 | 37981 ft | 465 kts | 49° |
| 2026-05-05 20:24 | 38.43647 | -1.81925 | 37975 ft | 465 kts | 49° |
| 2026-05-05 20:25 | 38.47809 | -1.75145 | 37966 ft | 466 kts | 49° |
| 2026-05-05 20:25 | 38.51949 | -1.68380 | 37967 ft | 466 kts | 49° |
| 2026-05-05 20:26 | 38.56095 | -1.61593 | 37977 ft | 467 kts | 49° |
| 2026-05-05 20:26 | 38.60128 | -1.54970 | 37976 ft | 467 kts | 49° |
| 2026-05-05 20:27 | 38.64129 | -1.48397 | 37981 ft | 468 kts | 49° |
| 2026-05-05 20:27 | 38.68148 | -1.41774 | 37989 ft | 469 kts | 49° |
| 2026-05-05 20:28 | 38.72139 | -1.35179 | 37974 ft | 470 kts | 49° |
| 2026-05-05 20:28 | 38.76130 | -1.28591 | 37978 ft | 470 kts | 50° |
| 2026-05-05 20:29 | 38.80161 | -1.21923 | 37977 ft | 470 kts | 50° |
| 2026-05-05 20:29 | 38.84145 | -1.15313 | 37976 ft | 471 kts | 50° |
| 2026-05-05 20:30 | 38.88151 | -1.08649 | 37984 ft | 471 kts | 50° |
| 2026-05-05 20:30 | 38.92133 | -1.02007 | 37977 ft | 471 kts | 50° |
| 2026-05-05 20:31 | 38.96137 | -0.95318 | 37971 ft | 471 kts | 50° |
| 2026-05-05 20:31 | 39.00116 | -0.88657 | 37949 ft | 472 kts | 50° |
| 2026-05-05 20:32 | 39.04109 | -0.81969 | 37962 ft | 472 kts | 49° |
| 2026-05-05 20:32 | 39.08474 | -0.75720 | 37926 ft | 468 kts | 40° |
| 2026-05-05 20:33 | 39.13424 | -0.70204 | 37944 ft | 466 kts | 34° |
| 2026-05-05 20:33 | 39.18460 | -0.64933 | 37929 ft | 466 kts | 34° |
| 2026-05-05 20:34 | 39.23451 | -0.59398 | 37915 ft | 470 kts | 43° |
| 2026-05-05 20:34 | 39.27196 | -0.52409 | 37910 ft | 476 kts | 64° |
| 2026-05-05 20:34 | 39.28357 | -0.48400 | 37917 ft | 477 kts | 75° |
| 2026-05-05 20:35 | 39.28988 | -0.44238 | 37916 ft | 476 kts | 85° |
| 2026-05-05 20:35 | 39.29401 | -0.35724 | 37917 ft | 474 kts | 89° |
| 2026-05-05 20:36 | 39.29740 | -0.27222 | 37917 ft | 474 kts | 89° |
| 2026-05-05 20:36 | 39.30146 | -0.18782 | 37919 ft | 475 kts | 89° |
| 2026-05-05 20:37 | 39.30576 | -0.10295 | 37913 ft | 474 kts | 89° |
| 2026-05-05 20:37 | 39.31002 | -0.01818 | 37902 ft | 474 kts | 89° |
| 2026-05-05 20:38 | 39.31422 | 0.06615 | 37894 ft | 475 kts | 88° |
| 2026-05-05 20:38 | 39.31839 | 0.15084 | 37913 ft | 475 kts | 88° |
| 2026-05-05 20:39 | 39.32251 | 0.23616 | 37909 ft | 475 kts | 89° |
| 2026-05-05 20:39 | 39.32652 | 0.32075 | 37910 ft | 476 kts | 89° |
| 2026-05-05 20:40 | 39.33047 | 0.40526 | 37906 ft | 474 kts | 89° |
| 2026-05-05 20:40 | 39.33440 | 0.49025 | 37914 ft | 475 kts | 89° |
| 2026-05-05 20:41 | 39.33826 | 0.57520 | 37922 ft | 477 kts | 89° |
| 2026-05-05 20:41 | 39.34204 | 0.66037 | 37909 ft | 477 kts | 90° |
| 2026-05-05 20:42 | 39.34577 | 0.74548 | 37913 ft | 477 kts | 90° |
| 2026-05-05 20:42 | 39.34946 | 0.83104 | 37912 ft | 476 kts | 90° |
| 2026-05-05 20:43 | 39.35305 | 0.91591 | 37908 ft | 476 kts | 90° |
| 2026-05-05 20:43 | 39.35658 | 1.00111 | 37921 ft | 477 kts | 90° |
| 2026-05-05 20:44 | 39.36003 | 1.08629 | 37913 ft | 476 kts | 90° |
| 2026-05-05 20:44 | 39.36344 | 1.17095 | 37911 ft | 476 kts | 90° |
| 2026-05-05 20:45 | 39.36843 | 1.29898 | 37912 ft | 476 kts | 90° |
| 2026-05-05 20:45 | 39.37167 | 1.38393 | 37899 ft | 476 kts | 90° |
| 2026-05-05 20:46 | 39.37487 | 1.46890 | 37910 ft | 476 kts | 90° |
| 2026-05-05 20:46 | 39.37801 | 1.55385 | 37904 ft | 475 kts | 90° |
| 2026-05-05 20:47 | 39.38109 | 1.63907 | 37911 ft | 474 kts | 90° |
| 2026-05-05 20:47 | 39.38410 | 1.72432 | 37896 ft | 474 kts | 90° |
| 2026-05-05 20:48 | 39.38699 | 1.80877 | 37922 ft | 474 kts | 90° |
| 2026-05-05 20:48 | 39.38987 | 1.89400 | 37908 ft | 474 kts | 91° |
| 2026-05-05 20:49 | 39.39268 | 1.97871 | 37927 ft | 474 kts | 91° |
| 2026-05-05 20:49 | 39.39539 | 2.06295 | 37917 ft | 474 kts | 91° |
| 2026-05-05 20:50 | 39.39763 | 2.13375 | 37943 ft | 473 kts | 91° |
| 2026-05-05 20:50 | 39.40066 | 2.23269 | 37938 ft | 473 kts | 91° |
| 2026-05-05 20:51 | 39.40322 | 2.31765 | 37948 ft | 473 kts | 91° |
| 2026-05-05 20:51 | 39.40569 | 2.40260 | 37940 ft | 473 kts | 91° |
| 2026-05-05 20:52 | 39.40815 | 2.48760 | 37944 ft | 473 kts | 91° |
| 2026-05-05 20:52 | 39.41054 | 2.57185 | 37931 ft | 472 kts | 91° |
| 2026-05-05 20:53 | 39.41288 | 2.65764 | 37942 ft | 472 kts | 92° |
| 2026-05-05 20:53 | 39.41523 | 2.74579 | 37932 ft | 471 kts | 92° |
| 2026-05-05 20:54 | 39.41754 | 2.83605 | 37937 ft | 470 kts | 92° |
| 2026-05-05 20:54 | 39.41973 | 2.92464 | 37951 ft | 470 kts | 92° |
| 2026-05-05 20:55 | 39.42190 | 3.01466 | 37940 ft | 469 kts | 92° |
| 2026-05-05 20:55 | 39.42393 | 3.10284 | 37920 ft | 468 kts | 92° |
| 2026-05-05 20:56 | 39.42720 | 3.18719 | 37928 ft | 471 kts | 86° |
| 2026-05-05 20:56 | 39.44127 | 3.27022 | 37937 ft | 475 kts | 72° |
| 2026-05-05 20:57 | 39.46795 | 3.34776 | 37920 ft | 476 kts | 60° |
| 2026-05-05 20:57 | 39.50212 | 3.42121 | 37920 ft | 477 kts | 57° |
| 2026-05-05 20:58 | 39.53640 | 3.49421 | 37926 ft | 477 kts | 58° |
| 2026-05-05 20:58 | 39.57059 | 3.56832 | 37927 ft | 477 kts | 59° |
| 2026-05-05 20:59 | 39.60428 | 3.64201 | 37913 ft | 477 kts | 59° |
| 2026-05-05 20:59 | 39.63794 | 3.71590 | 37920 ft | 477 kts | 59° |
| 2026-05-05 21:00 | 39.67146 | 3.78964 | 37904 ft | 477 kts | 60° |
| 2026-05-05 21:00 | 39.70500 | 3.86366 | 37914 ft | 477 kts | 60° |
| 2026-05-05 21:01 | 39.73851 | 3.93770 | 37906 ft | 477 kts | 59° |
| 2026-05-05 21:01 | 39.77222 | 4.01243 | 37917 ft | 477 kts | 59° |
| 2026-05-05 21:02 | 39.80549 | 4.08634 | 37920 ft | 477 kts | 60° |
| 2026-05-05 21:02 | 39.83905 | 4.16111 | 37938 ft | 479 kts | 60° |
| 2026-05-05 21:03 | 39.87238 | 4.23545 | 37933 ft | 479 kts | 59° |
| 2026-05-05 21:03 | 39.90609 | 4.31044 | 37939 ft | 480 kts | 59° |
| 2026-05-05 21:04 | 39.93954 | 4.38514 | 37931 ft | 481 kts | 59° |
| 2026-05-05 21:04 | 39.97322 | 4.46055 | 37934 ft | 480 kts | 59° |
| 2026-05-05 21:05 | 40.00645 | 4.53524 | 37937 ft | 481 kts | 59° |
| 2026-05-05 21:05 | 40.04000 | 4.61078 | 37937 ft | 481 kts | 59° |
| 2026-05-05 21:06 | 40.07608 | 4.68383 | 37919 ft | 481 kts | 52° |
| 2026-05-05 21:06 | 40.11794 | 4.75111 | 37928 ft | 480 kts | 49° |
| 2026-05-05 21:07 | 40.16103 | 4.81790 | 37921 ft | 480 kts | 49° |
| 2026-05-05 21:07 | 40.20368 | 4.88464 | 37932 ft | 479 kts | 49° |
| 2026-05-05 21:08 | 40.24648 | 4.95208 | 37923 ft | 479 kts | 49° |
| 2026-05-05 21:08 | 40.28882 | 5.01899 | 37926 ft | 479 kts | 49° |
| 2026-05-05 21:09 | 40.33133 | 5.08634 | 37927 ft | 479 kts | 49° |
| 2026-05-05 21:09 | 40.37378 | 5.15374 | 37923 ft | 479 kts | 49° |
| 2026-05-05 21:10 | 40.41613 | 5.22111 | 37926 ft | 479 kts | 49° |
| 2026-05-05 21:10 | 40.45840 | 5.28851 | 37909 ft | 479 kts | 49° |
| 2026-05-05 21:11 | 40.50049 | 5.35581 | 37921 ft | 479 kts | 49° |
| 2026-05-05 21:11 | 40.54263 | 5.42331 | 37924 ft | 479 kts | 50° |
| 2026-05-05 21:12 | 40.58490 | 5.49120 | 37923 ft | 478 kts | 49° |
| 2026-05-05 21:12 | 40.62683 | 5.55865 | 37920 ft | 478 kts | 50° |
| 2026-05-05 21:13 | 40.66871 | 5.62617 | 37924 ft | 477 kts | 50° |
| 2026-05-05 21:13 | 40.71050 | 5.69371 | 37927 ft | 477 kts | 50° |
| 2026-05-05 21:14 | 40.75202 | 5.76094 | 37935 ft | 477 kts | 50° |
| 2026-05-05 21:14 | 40.79381 | 5.82880 | 37925 ft | 478 kts | 50° |
| 2026-05-05 21:15 | 40.83562 | 5.89680 | 37924 ft | 478 kts | 50° |
| 2026-05-05 21:15 | 40.87733 | 5.96478 | 37921 ft | 478 kts | 50° |
| 2026-05-05 21:16 | 40.91907 | 6.03301 | 37929 ft | 478 kts | 50° |
| 2026-05-05 21:16 | 40.96044 | 6.10076 | 37931 ft | 479 kts | 50° |
| 2026-05-05 21:17 | 41.00217 | 6.16925 | 37931 ft | 478 kts | 50° |
| 2026-05-05 21:17 | 41.04375 | 6.23765 | 37935 ft | 478 kts | 50° |
| 2026-05-05 21:18 | 41.08506 | 6.30578 | 37939 ft | 477 kts | 50° |
| 2026-05-05 21:18 | 41.12660 | 6.37439 | 37924 ft | 478 kts | 51° |
| 2026-05-05 21:19 | 41.16808 | 6.44316 | 37928 ft | 477 kts | 50° |
| 2026-05-05 21:19 | 41.20929 | 6.51163 | 37925 ft | 477 kts | 50° |
| 2026-05-05 21:20 | 41.25068 | 6.58036 | 37940 ft | 478 kts | 50° |
| 2026-05-05 21:20 | 41.29293 | 6.64822 | 37934 ft | 478 kts | 49° |
| 2026-05-05 21:21 | 41.33543 | 6.71622 | 37933 ft | 478 kts | 50° |
| 2026-05-05 21:21 | 41.37757 | 6.78409 | 37934 ft | 478 kts | 50° |
| 2026-05-05 21:22 | 41.41975 | 6.85227 | 37935 ft | 478 kts | 50° |
| 2026-05-05 21:22 | 41.46209 | 6.92091 | 37939 ft | 478 kts | 50° |
| 2026-05-05 21:23 | 41.50402 | 6.98903 | 37925 ft | 478 kts | 50° |
| 2026-05-05 21:23 | 41.54606 | 7.05745 | 37926 ft | 478 kts | 50° |
| 2026-05-05 21:24 | 41.58827 | 7.12637 | 37912 ft | 478 kts | 50° |
| 2026-05-05 21:24 | 41.62999 | 7.19457 | 37920 ft | 478 kts | 50° |
| 2026-05-05 21:25 | 41.67199 | 7.26346 | 37922 ft | 479 kts | 50° |
| 2026-05-05 21:25 | 41.71382 | 7.33220 | 37915 ft | 478 kts | 50° |
| 2026-05-05 21:26 | 41.75559 | 7.40099 | 37917 ft | 478 kts | 50° |
| 2026-05-05 21:26 | 41.79739 | 7.46996 | 37921 ft | 478 kts | 50° |
| 2026-05-05 21:27 | 41.83919 | 7.53915 | 37928 ft | 478 kts | 50° |
| 2026-05-05 21:27 | 41.88072 | 7.60799 | 37919 ft | 478 kts | 50° |
| 2026-05-05 21:28 | 41.92235 | 7.67716 | 37920 ft | 478 kts | 51° |
| 2026-05-05 21:28 | 41.96413 | 7.74678 | 37925 ft | 478 kts | 50° |
| 2026-05-05 21:29 | 42.00549 | 7.81587 | 37928 ft | 478 kts | 50° |
| 2026-05-05 21:29 | 42.04723 | 7.88571 | 37917 ft | 481 kts | 50° |
| 2026-05-05 21:30 | 42.08915 | 7.95604 | 37925 ft | 481 kts | 51° |
| 2026-05-05 21:30 | 42.13067 | 8.02591 | 37934 ft | 480 kts | 51° |
| 2026-05-05 21:31 | 42.17253 | 8.09646 | 37939 ft | 480 kts | 50° |
| 2026-05-05 21:31 | 42.21408 | 8.16669 | 37940 ft | 480 kts | 51° |
| 2026-05-05 21:32 | 42.25547 | 8.23689 | 37938 ft | 480 kts | 51° |
| 2026-05-05 21:32 | 42.29782 | 8.30550 | 37932 ft | 479 kts | 44° |
| 2026-05-05 21:33 | 42.34826 | 8.36361 | 37941 ft | 474 kts | 30° |
| 2026-05-05 21:33 | 42.40561 | 8.40606 | 37952 ft | 467 kts | 17° |
| 2026-05-05 21:34 | 42.46551 | 8.43868 | 37953 ft | 465 kts | 16° |
| 2026-05-05 21:34 | 42.52544 | 8.47106 | 37949 ft | 466 kts | 16° |
| 2026-05-05 21:35 | 42.58530 | 8.50409 | 37945 ft | 467 kts | 17° |
| 2026-05-05 21:35 | 42.64561 | 8.53772 | 37952 ft | 467 kts | 17° |
| 2026-05-05 21:36 | 42.70538 | 8.57114 | 37956 ft | 466 kts | 17° |
| 2026-05-05 21:36 | 42.76527 | 8.60467 | 37948 ft | 467 kts | 17° |
| 2026-05-05 21:37 | 42.82515 | 8.63831 | 37934 ft | 468 kts | 17° |
| 2026-05-05 21:37 | 42.88544 | 8.67225 | 37961 ft | 468 kts | 17° |
| 2026-05-05 21:38 | 42.94552 | 8.70608 | 37946 ft | 468 kts | 18° |
| 2026-05-05 21:38 | 43.00541 | 8.73986 | 37947 ft | 468 kts | 18° |
| 2026-05-05 21:39 | 43.06536 | 8.77382 | 37953 ft | 468 kts | 18° |
| 2026-05-05 21:39 | 43.12573 | 8.80809 | 37942 ft | 468 kts | 18° |
| 2026-05-05 21:40 | 43.18537 | 8.84206 | 37952 ft | 467 kts | 18° |
| 2026-05-05 21:40 | 43.24562 | 8.87645 | 37943 ft | 467 kts | 18° |
| 2026-05-05 21:41 | 43.30553 | 8.91067 | 37945 ft | 467 kts | 17° |
| 2026-05-05 21:41 | 43.36634 | 8.93925 | 37939 ft | 462 kts | 8° |
| 2026-05-05 21:42 | 43.42878 | 8.95542 | 37920 ft | 454 kts | 359° |
| 2026-05-05 21:42 | 43.49149 | 8.95943 | 37232 ft | 451 kts | 352° |
| 2026-05-05 21:43 | 43.52305 | 8.95902 | 36122 ft | 460 kts | 352° |
| 2026-05-05 21:43 | 43.55493 | 8.95847 | 35299 ft | 467 kts | 352° |
| 2026-05-05 21:43 | 43.58778 | 8.95817 | 34538 ft | 473 kts | 353° |
| 2026-05-05 21:43 | 43.62075 | 8.95962 | 33761 ft | 480 kts | 356° |
| 2026-05-05 21:44 | 43.65383 | 8.96398 | 33040 ft | 484 kts | 0° |
| 2026-05-05 21:44 | 43.68734 | 8.97149 | 32341 ft | 487 kts | 5° |
| 2026-05-05 21:44 | 43.72035 | 8.98108 | 31634 ft | 489 kts | 6° |
| 2026-05-05 21:44 | 43.75337 | 8.99126 | 30927 ft | 488 kts | 6° |
| 2026-05-05 21:45 | 43.78625 | 9.00122 | 30227 ft | 486 kts | 5° |
| 2026-05-05 21:45 | 43.81967 | 9.00908 | 29525 ft | 482 kts | 1° |
| 2026-05-05 21:45 | 43.85287 | 9.01411 | 28779 ft | 480 kts | 360° |
| 2026-05-05 21:45 | 43.88565 | 9.01798 | 27967 ft | 481 kts | 359° |
| 2026-05-05 21:46 | 43.91922 | 9.02167 | 27125 ft | 482 kts | 0° |
| 2026-05-05 21:46 | 43.95260 | 9.02540 | 26276 ft | 484 kts | 0° |
| 2026-05-05 21:46 | 43.98613 | 9.02926 | 25394 ft | 486 kts | 1° |
| 2026-05-05 21:46 | 44.01964 | 9.03319 | 24493 ft | 487 kts | 2° |
| 2026-05-05 21:47 | 44.05303 | 9.03720 | 23669 ft | 486 kts | 3° |
| 2026-05-05 21:47 | 44.08634 | 9.04128 | 22977 ft | 481 kts | 3° |
| 2026-05-05 21:47 | 44.11982 | 9.04543 | 21911 ft | 485 kts | 3° |
| 2026-05-05 21:47 | 44.15345 | 9.04956 | 20662 ft | 491 kts | 3° |
| 2026-05-05 21:48 | 44.18701 | 9.05363 | 19632 ft | 490 kts | 2° |
| 2026-05-05 21:48 | 44.22057 | 9.05767 | 19008 ft | 480 kts | 2° |
| 2026-05-05 21:48 | 44.25377 | 9.06166 | 18282 ft | 473 kts | 2° |
| 2026-05-05 21:48 | 44.28689 | 9.06561 | 17490 ft | 468 kts | 2° |
| 2026-05-05 21:49 | 44.31944 | 9.06953 | 16741 ft | 462 kts | 2° |
| 2026-05-05 21:49 | 44.35176 | 9.07342 | 15980 ft | 456 kts | 2° |
| 2026-05-05 21:49 | 44.38337 | 9.07724 | 15274 ft | 450 kts | 2° |
| 2026-05-05 21:49 | 44.41487 | 9.08132 | 14560 ft | 444 kts | 4° |
| 2026-05-05 21:50 | 44.44463 | 9.08738 | 14100 ft | 433 kts | 7° |
| 2026-05-05 21:50 | 44.47423 | 9.09497 | 13956 ft | 424 kts | 8° |
| 2026-05-05 21:50 | 44.50324 | 9.10281 | 13960 ft | 425 kts | 8° |
| 2026-05-05 21:50 | 44.53171 | 9.11056 | 13954 ft | 410 kts | 8° |
| 2026-05-05 21:51 | 44.55921 | 9.11806 | 13796 ft | 394 kts | 8° |
| 2026-05-05 21:51 | 44.58579 | 9.12527 | 13352 ft | 387 kts | 8° |
| 2026-05-05 21:51 | 44.61194 | 9.13233 | 12854 ft | 373 kts | 8° |
| 2026-05-05 21:51 | 44.63687 | 9.13905 | 12184 ft | 359 kts | 8° |
| 2026-05-05 21:52 | 44.68384 | 9.15170 | 10940 ft | 333 kts | 8° |
| 2026-05-05 21:52 | 44.70603 | 9.15768 | 10382 ft | 319 kts | 9° |
| 2026-05-05 21:52 | 44.72722 | 9.16342 | 10155 ft | 301 kts | 9° |
| 2026-05-05 21:53 | 44.74757 | 9.16894 | 10016 ft | 294 kts | 8° |
| 2026-05-05 21:53 | 44.76810 | 9.17447 | 9955 ft | 303 kts | 8° |
| 2026-05-05 21:53 | 44.78926 | 9.18017 | 9951 ft | 306 kts | 8° |
| 2026-05-05 21:53 | 44.81079 | 9.18600 | 9955 ft | 306 kts | 8° |
| 2026-05-05 21:54 | 44.83276 | 9.19195 | 9953 ft | 305 kts | 8° |
| 2026-05-05 21:54 | 44.85368 | 9.19762 | 9900 ft | 301 kts | 8° |
| 2026-05-05 21:54 | 44.87397 | 9.20313 | 9643 ft | 295 kts | 8° |
| 2026-05-05 21:54 | 44.89424 | 9.20865 | 9352 ft | 291 kts | 8° |
| 2026-05-05 21:55 | 44.91394 | 9.21401 | 9091 ft | 285 kts | 8° |
| 2026-05-05 21:55 | 44.93334 | 9.21928 | 8927 ft | 276 kts | 8° |
| 2026-05-05 21:55 | 44.95206 | 9.22438 | 8767 ft | 268 kts | 8° |
| 2026-05-05 21:55 | 44.97030 | 9.22934 | 8518 ft | 264 kts | 9° |
| 2026-05-05 21:56 | 44.98822 | 9.23421 | 8252 ft | 261 kts | 9° |
| 2026-05-05 21:56 | 45.00562 | 9.23898 | 8102 ft | 253 kts | 9° |
| 2026-05-05 21:56 | 45.02267 | 9.24364 | 7944 ft | 245 kts | 9° |
| 2026-05-05 21:56 | 45.03926 | 9.24817 | 7708 ft | 242 kts | 9° |
| 2026-05-05 21:57 | 45.05609 | 9.25275 | 7548 ft | 235 kts | 9° |
| 2026-05-05 21:57 | 45.07245 | 9.25722 | 7374 ft | 228 kts | 9° |
| 2026-05-05 21:57 | 45.08789 | 9.26145 | 7158 ft | 224 kts | 9° |
| 2026-05-05 21:57 | 45.10309 | 9.26561 | 6937 ft | 221 kts | 9° |
| 2026-05-05 21:58 | 45.11806 | 9.26972 | 6709 ft | 218 kts | 9° |
| 2026-05-05 21:58 | 45.13279 | 9.27374 | 6440 ft | 217 kts | 9° |
| 2026-05-05 21:58 | 45.14749 | 9.27776 | 6237 ft | 211 kts | 10° |
| 2026-05-05 21:58 | 45.16136 | 9.28158 | 6135 ft | 197 kts | 9° |
| 2026-05-05 21:59 | 45.17479 | 9.28527 | 5763 ft | 201 kts | 10° |
| 2026-05-05 21:59 | 45.18869 | 9.28906 | 5217 ft | 212 kts | 10° |
| 2026-05-05 21:59 | 45.20332 | 9.29371 | 4692 ft | 219 kts | 14° |
| 2026-05-05 21:59 | 45.21824 | 9.29808 | 4387 ft | 214 kts | 7° |
| 2026-05-05 22:00 | 45.23274 | 9.29924 | 4127 ft | 208 kts | 360° |
| 2026-05-05 22:00 | 45.24707 | 9.29847 | 3869 ft | 202 kts | 356° |
| 2026-05-05 22:00 | 45.26079 | 9.29704 | 3629 ft | 196 kts | 355° |
| 2026-05-05 22:00 | 45.27427 | 9.29549 | 3389 ft | 191 kts | 355° |
| 2026-05-05 22:01 | 45.28717 | 9.29403 | 3221 ft | 181 kts | 356° |
| 2026-05-05 22:01 | 45.29941 | 9.29269 | 3117 ft | 169 kts | 356° |
| 2026-05-05 22:01 | 45.31113 | 9.29135 | 2744 ft | 175 kts | 355° |
| 2026-05-05 22:01 | 45.32323 | 9.29007 | 2466 ft | 172 kts | 356° |
| 2026-05-05 22:02 | 45.33421 | 9.28911 | 2476 ft | 147 kts | 357° |
| 2026-05-05 22:02 | 45.34396 | 9.28832 | 2191 ft | 140 kts | 358° |
| 2026-05-05 22:02 | 45.35367 | 9.28732 | 1857 ft | 137 kts | 355° |
| 2026-05-05 22:02 | 45.36277 | 9.28612 | 1692 ft | 134 kts | 355° |
| 2026-05-05 22:03 | 45.37219 | 9.28499 | 1654 ft | 156 kts | 356° |
| 2026-05-05 22:03 | 45.38307 | 9.28346 | 1701 ft | 166 kts | 357° |
| 2026-05-05 22:03 | 45.39366 | 9.28287 | 1360 ft | 162 kts | 353° |
| 2026-05-05 22:03 | 45.40409 | 9.28165 | 966 ft | 159 kts | 355° |
| 2026-05-05 22:04 | 45.41393 | 9.28050 | 760 ft | 154 kts | 354° |
| 2026-05-05 22:04 | 45.42366 | 9.27939 | 578 ft | 144 kts | 353° |
| 2026-05-05 22:04 | 45.43282 | 9.27845 | 437 ft | 139 kts | 353° |
| 2026-05-05 22:04 | 45.44144 | 9.27753 | 344 ft | 120 kts | 354° |
| 2026-05-05 22:05 | 45.44801 | 9.27680 | 355 ft | 76 kts | 356° |
| 2026-05-05 22:05 | 45.45164 | 9.27637 | 353 ft | 40 kts | 356° |
| 2026-05-05 22:05 | 45.45342 | 9.27681 | 350 ft | 24 kts | 24° |
| 2026-05-05 22:05 | 45.45423 | 9.27747 | 350 ft | 7 kts | 37° |
| 2026-05-05 22:06 | 45.45467 | 9.27800 | 350 ft | 8 kts | 32° |
| 2026-05-05 22:06 | 45.45532 | 9.27814 | 350 ft | 10 kts | 360° |
| 2026-05-05 22:06 | 45.45600 | 9.27816 | 352 ft | 9 kts | 1° |
| 2026-05-05 22:06 | 45.45672 | 9.27818 | 353 ft | 9 kts | 1° |
| 2026-05-05 22:07 | 45.45741 | 9.27819 | 354 ft | 9 kts | 0° |
| 2026-05-05 22:07 | 45.45808 | 9.27820 | 356 ft | 9 kts | 1° |
| 2026-05-05 22:07 | 45.45872 | 9.27822 | 358 ft | 8 kts | 4° |
| 2026-05-05 22:07 | 45.45906 | 9.27869 | 360 ft | 6 kts | 80° |
| 2026-05-05 22:08 | 45.45907 | 9.27933 | 361 ft | 6 kts | 88° |
| 2026-05-05 22:08 | 45.45929 | 9.27965 | 363 ft | 4 kts | 11° |
| 2026-05-05 22:08 | 45.45952 | 9.27967 | 364 ft | 2 kts | 3° |
| 2026-05-05 22:08 | 45.45965 | 9.27968 | 364 ft | 1 kts | 2° |
| 2026-05-05 22:09 | 45.45974 | 9.27968 | 365 ft | 2 kts | 359° |
| 2026-05-05 22:09 | 45.45982 | 9.27968 | 365 ft | 0 kts | 1° |